Time;durP1;ratioP1;P1;durP2;ratioP2;P2;SDS_P1;SDS_P2;PMS_P1;PMS_P2;Temp;Humidity;BMP_temperature;BMP_pressure;BME280_temperature;BME280_humidity;BME280_pressure;Samples;Min_cycle;Max_cycle;Signal;HPM_P1;HPM_P2
2022/12/19 00:01:25;;;;;;;19.23;9.50;;;-4.90;99.90;;;-5.17;74.24;102529.63;5106498;28;20629;-74
2022/12/19 00:03:56;;;;;;;17.93;10.13;;;-4.90;99.90;;;-5.17;74.11;102529.63;5094839;28;20209;-76
2022/12/19 00:06:26;;;;;;;20.53;10.50;;;-4.90;99.90;;;-5.14;73.72;102534.94;5092285;28;20795;-77
2022/12/19 00:08:55;;;;;;;22.10;10.07;;;-4.90;99.90;;;-5.18;73.61;102530.38;5094240;28;20247;-78
2022/12/19 00:11:26;;;;;;;17.90;9.87;;;-5.00;99.90;;;-5.28;73.58;102525.25;5092929;28;20627;-75
2022/12/19 00:13:55;;;;;;;19.77;10.30;;;-5.00;99.90;;;-5.34;73.82;102535.59;5089939;28;20196;-75
2022/12/19 00:16:26;;;;;;;21.17;10.20;;;-5.00;99.90;;;-5.39;73.99;102527.66;5104523;28;20254;-76
2022/12/19 00:18:57;;;;;;;21.37;9.50;;;-5.10;99.90;;;-5.40;73.58;102523.38;5093932;28;20220;-78
2022/12/19 00:21:28;;;;;;;20.53;10.80;;;-5.10;99.90;;;-5.41;73.78;102523.25;5085406;28;20223;-73
2022/12/19 00:23:57;;;;;;;23.77;11.43;;;-5.10;99.90;;;-5.46;74.25;102525.31;5095117;28;20699;-74
2022/12/19 00:26:31;;;;;;;19.53;10.37;;;-5.20;99.90;;;-5.50;73.91;102528.28;5095050;28;20204;-77
2022/12/19 00:29:02;;;;;;;21.87;10.90;;;-5.20;99.90;;;-5.47;74.14;102528.59;5092508;28;20239;-77
2022/12/19 00:31:33;;;;;;;17.83;9.90;;;-5.20;99.90;;;-5.45;74.18;102527.13;5094259;28;20200;-75
2022/12/19 00:34:03;;;;;;;22.10;11.00;;;-5.20;99.90;;;-5.45;74.12;102531.22;5097222;28;20271;-78
2022/12/19 00:36:33;;;;;;;22.73;10.93;;;-5.20;99.90;;;-5.53;74.12;102522.09;5081029;28;20267;-78
2022/12/19 00:39:04;;;;;;;17.67;9.40;;;-5.20;99.90;;;-5.54;74.28;102540.44;5094224;28;20267;-75
2022/12/19 00:41:39;;;;;;;17.27;10.53;;;-5.20;99.90;;;-5.55;74.78;102538.66;5092162;28;20652;-77
2022/12/19 00:44:13;;;;;;;19.43;10.00;;;-5.20;99.90;;;-5.55;74.96;102541.19;5095655;28;20740;-78
2022/12/19 00:46:42;;;;;;;21.40;10.10;;;-5.20;99.90;;;-5.51;74.56;102536.56;5094985;28;20204;-77
2022/12/19 00:49:20;;;;;;;23.00;10.97;;;-5.20;99.90;;;-5.47;74.89;102542.78;5086262;28;20215;-77
2022/12/19 00:51:49;;;;;;;23.80;11.47;;;-5.20;99.90;;;-5.40;74.68;102543.47;5096473;27;20200;-75
2022/12/19 00:54:17;;;;;;;20.57;11.03;;;-5.10;99.90;;;-5.37;74.25;102541.25;5093577;28;20247;-79
2022/12/19 00:56:48;;;;;;;27.20;11.63;;;-5.10;99.90;;;-5.36;73.85;102537.13;5093840;28;20506;-78
2022/12/19 00:59:16;;;;;;;21.30;10.97;;;-5.10;99.90;;;-5.40;74.15;102533.44;5095182;28;20239;-76
2022/12/19 01:01:53;;;;;;;21.83;10.40;;;-5.10;99.90;;;-5.39;74.02;102546.88;5090696;28;20277;-76
2022/12/19 01:04:22;;;;;;;19.97;8.87;;;-5.10;99.90;;;-5.42;73.90;102539.06;5093899;28;20267;-76
2022/12/19 01:06:57;;;;;;;19.77;10.53;;;-5.20;99.90;;;-5.47;73.68;102527.69;5103375;27;20219;-75
2022/12/19 01:09:30;;;;;;;20.70;9.43;;;-5.20;99.90;;;-5.54;74.48;102531.25;5081688;28;20204;-78
2022/12/19 01:14:53;;;;;;;22.07;8.93;;;-5.20;99.90;;;-5.60;74.20;102530.69;5084437;28;20562;-78
2022/12/19 01:17:33;;;;;;;20.00;9.57;;;-5.30;99.90;;;-5.60;74.46;102530.69;5093053;28;20611;-77
2022/12/19 01:20:07;;;;;;;19.27;9.87;;;-5.30;99.90;;;-5.59;74.34;102514.91;5083569;28;20200;-77
2022/12/19 01:22:36;;;;;;;19.23;10.07;;;-5.30;99.90;;;-5.59;74.15;102515.78;5092319;28;20244;-77
2022/12/19 01:25:06;;;;;;;17.23;9.23;;;-5.30;99.90;;;-5.63;74.33;102506.19;5093549;28;20253;-74
2022/12/19 01:27:36;;;;;;;19.23;9.37;;;-5.30;99.90;;;-5.59;74.34;102513.28;5092975;28;20297;-73
2022/12/19 01:30:06;;;;;;;17.80;9.53;;;-5.30;99.90;;;-5.60;74.55;102515.63;5104701;27;20234;-75
2022/12/19 01:32:35;;;;;;;15.93;9.83;;;-5.30;99.90;;;-5.66;73.94;102495.84;5099013;28;20286;-75
2022/12/19 01:35:05;;;;;;;22.00;10.67;;;-5.30;99.90;;;-5.69;74.01;102504.72;5089685;28;20205;-78
2022/12/19 01:37:38;;;;;;;22.47;10.17;;;-5.40;99.90;;;-5.73;74.23;102498.53;5076955;28;20213;-77
2022/12/19 01:40:08;;;;;;;22.00;10.33;;;-5.40;99.90;;;-5.78;73.86;102504.78;5095697;28;20213;-78
2022/12/19 01:42:38;;;;;;;18.97;9.80;;;-5.50;99.90;;;-5.83;74.56;102501.81;5089161;28;20220;-79
2022/12/19 01:45:29;;;;;;;17.33;9.90;;;-5.50;99.90;;;-5.84;74.56;102492.50;5092553;28;20711;-76
2022/12/19 01:48:15;;;;;;;18.97;9.37;;;-5.50;99.90;;;-5.83;74.55;102496.78;5093071;28;20208;-75
2022/12/19 01:50:55;;;;;;;16.80;9.77;;;-5.50;99.90;;;-5.80;74.75;102485.28;5098834;28;20212;-78
2022/12/19 01:53:34;;;;;;;24.53;10.80;;;-5.50;99.90;;;-5.78;74.70;102491.31;5092665;28;20287;-78
2022/12/19 01:56:12;;;;;;;21.23;11.13;;;-5.50;99.90;;;-5.80;74.67;102490.28;5083814;28;20200;-76
2022/12/19 01:58:46;;;;;;;23.03;10.97;;;-5.50;99.90;;;-5.79;74.55;102487.91;5093030;28;20680;-78
2022/12/19 02:01:16;;;;;;;24.27;11.03;;;-5.50;99.90;;;-5.78;74.64;102489.72;5102862;28;20285;-78
2022/12/19 02:03:45;;;;;;;22.40;10.77;;;-5.40;99.90;;;-5.80;74.57;102488.66;5095302;28;20238;-78
2022/12/19 02:06:15;;;;;;;21.90;12.13;;;-5.50;99.90;;;-5.78;74.75;102488.78;5092625;28;20220;-76
2022/12/19 02:08:47;;;;;;;25.20;12.40;;;-5.40;99.90;;;-5.76;74.72;102493.22;5091422;28;20216;-76
2022/12/19 02:11:15;;;;;;;24.00;12.47;;;-5.40;99.90;;;-5.73;74.27;102492.63;5099227;28;20254;-70
2022/12/19 02:13:46;;;;;;;22.63;12.60;;;-5.40;99.90;;;-5.69;74.44;102477.13;5092166;28;20216;-78
2022/12/19 02:16:29;;;;;;;29.13;12.30;;;-5.40;99.90;;;-5.63;74.46;102486.09;5102072;28;20203;-78
2022/12/19 02:19:14;;;;;;;24.60;11.60;;;-5.40;99.90;;;-5.59;74.32;102470.56;5098124;28;20691;-78
2022/12/19 02:21:54;;;;;;;21.90;11.63;;;-5.30;99.90;;;-5.58;74.02;102473.97;5102559;28;20204;-72
2022/12/19 02:25:04;;;;;;;20.80;11.43;;;-5.30;99.90;;;-5.61;74.13;102473.69;5095023;28;20204;-76
2022/12/19 02:28:18;;;;;;;23.57;12.17;;;-5.30;99.90;;;-5.61;73.83;102468.66;5078171;28;20197;-76
2022/12/19 02:31:05;;;;;;;22.23;10.90;;;-5.30;99.90;;;-5.62;73.42;102486.97;5090190;28;20206;-77
2022/12/19 02:33:56;;;;;;;23.03;10.47;;;-5.30;99.90;;;-5.68;73.57;102483.91;5100024;28;20270;-76
2022/12/19 02:36:30;;;;;;;22.07;12.07;;;-5.40;99.90;;;-5.76;73.23;102475.66;5093514;28;20236;-77
2022/12/19 02:39:10;;;;;;;22.60;11.57;;;-5.50;99.90;;;-5.79;73.37;102472.84;5097622;28;20740;-71
2022/12/19 02:41:44;;;;;;;21.87;10.70;;;-5.50;99.90;;;-5.86;72.96;102476.41;5092793;28;20207;-76
2022/12/19 02:44:19;;;;;;;23.37;11.53;;;-5.60;99.90;;;-6.00;72.85;102471.78;5100807;28;20289;-73
2022/12/19 02:46:50;;;;;;;17.77;10.00;;;-5.70;99.90;;;-6.15;72.88;102458.69;5080327;28;20643;-76
2022/12/19 02:49:19;;;;;;;20.17;10.17;;;-5.80;99.90;;;-6.22;72.70;102458.84;5093257;28;20235;-75
2022/12/19 02:51:58;;;;;;;20.87;9.30;;;-5.90;99.90;;;-6.29;73.49;102455.63;5092824;28;20204;-76
2022/12/19 02:54:26;;;;;;;20.80;11.17;;;-6.00;99.90;;;-6.37;73.21;102442.31;5090176;28;20710;-76
2022/12/19 02:57:05;;;;;;;20.30;10.53;;;-6.00;99.90;;;-6.42;73.69;102454.44;5094874;28;20204;-75
2022/12/19 02:59:50;;;;;;;20.00;10.73;;;-6.10;99.90;;;-6.43;73.78;102462.72;5106722;28;20227;-77
2022/12/19 03:02:34;;;;;;;21.27;11.20;;;-6.10;99.90;;;-6.45;73.78;102466.69;5084282;28;20783;-78
2022/12/19 03:05:14;;;;;;;25.17;10.73;;;-6.10;99.90;;;-6.48;73.81;102468.00;5098086;28;20196;-74
2022/12/19 03:07:55;;;;;;;22.77;10.77;;;-6.20;99.90;;;-6.53;73.72;102470.06;5101285;28;20199;-77
2022/12/19 03:10:33;;;;;;;21.87;11.17;;;-6.20;99.90;;;-6.60;74.14;102456.06;5087689;28;20204;-77
2022/12/19 03:13:10;;;;;;;22.97;11.93;;;-6.30;99.90;;;-6.64;74.73;102465.66;5096848;28;20228;-77
2022/12/19 03:15:41;;;;;;;26.77;12.23;;;-6.30;99.90;;;-6.71;74.79;102446.63;5098382;28;20257;-75
2022/12/19 03:18:11;;;;;;;19.33;10.90;;;-6.30;99.90;;;-6.74;74.91;102446.34;5098604;28;20287;-73
2022/12/19 03:20:48;;;;;;;23.93;11.23;;;-6.30;99.90;;;-6.75;75.20;102441.19;5106849;28;20204;-75
2022/12/19 03:23:17;;;;;;;14.93;6.87;;;-6.40;99.90;;;-6.78;75.42;102440.88;5093635;28;20269;-74
2022/12/19 03:25:52;;;;;;;23.93;11.33;;;-6.40;99.90;;;-6.78;75.51;102446.78;5094131;28;20212;-75
2022/12/19 03:28:29;;;;;;;25.87;11.87;;;-6.40;99.90;;;-6.77;75.10;102442.66;5089542;28;20211;-78
2022/12/19 03:31:00;;;;;;;27.03;11.87;;;-6.40;99.90;;;-6.77;75.67;102448.56;5095088;28;20321;-77
2022/12/19 03:33:34;;;;;;;24.53;12.83;;;-6.40;99.90;;;-6.79;75.23;102449.16;5096463;28;20659;-77
2022/12/19 03:36:07;;;;;;;29.57;12.80;;;-6.40;99.90;;;-6.81;75.19;102449.91;5092576;28;20204;-77
2022/12/19 03:38:39;;;;;;;23.83;12.50;;;-6.50;99.90;;;-6.82;75.87;102444.72;5089786;28;21171;-75
2022/12/19 03:41:13;;;;;;;23.17;10.87;;;-6.50;99.90;;;-6.87;75.42;102436.75;5097680;28;20258;-76
2022/12/19 03:43:43;;;;;;;24.77;11.70;;;-6.50;99.90;;;-6.87;75.58;102435.88;5092501;28;20216;-75
2022/12/19 03:46:17;;;;;;;21.57;10.83;;;-6.50;99.90;;;-6.89;75.91;102432.31;5091889;28;20250;-78
2022/12/19 03:48:51;;;;;;;23.50;11.33;;;-6.50;99.90;;;-6.91;75.65;102434.69;5084402;28;20196;-76
2022/12/19 03:51:30;;;;;;;23.47;11.40;;;-6.50;99.90;;;-6.92;75.98;102442.03;5103215;28;20208;-77
2022/12/19 03:54:03;;;;;;;20.07;11.30;;;-6.50;99.90;;;-6.94;75.58;102439.41;5110842;28;20216;-76
2022/12/19 03:56:40;;;;;;;25.27;11.57;;;-6.60;99.90;;;-6.94;76.00;102436.03;5089761;28;20516;-71
2022/12/19 03:59:16;;;;;;;25.17;12.17;;;-6.60;99.90;;;-6.98;76.08;102427.31;5091257;28;20204;-73
2022/12/19 04:01:46;;;;;;;28.23;12.37;;;-6.60;99.90;;;-6.99;75.76;102429.69;5092339;28;20208;-75
2022/12/19 04:04:17;;;;;;;27.83;10.87;;;-6.60;99.90;;;-7.01;75.95;102417.00;5098293;28;20856;-77
2022/12/19 04:06:48;;;;;;;26.90;13.67;;;-6.60;99.90;;;-7.04;75.59;102421.72;5095261;28;20211;-75
2022/12/19 04:09:20;;;;;;;22.13;10.43;;;-6.70;99.90;;;-7.08;76.41;102414.63;5095252;28;20240;-74
2022/12/19 04:11:55;;;;;;;29.70;12.30;;;-6.70;99.90;;;-7.11;76.00;102409.31;5106079;28;20247;-77
2022/12/19 04:14:28;;;;;;;20.20;10.97;;;-6.70;99.90;;;-7.18;76.71;102392.84;5095254;28;20205;-78
2022/12/19 04:17:06;;;;;;;20.60;10.23;;;-6.80;99.90;;;-7.21;75.82;102405.06;5103665;28;20725;-77
2022/12/19 04:19:42;;;;;;;26.63;11.37;;;-6.80;99.90;;;-7.24;76.09;102406.38;5093201;28;20268;-76
2022/12/19 04:22:21;;;;;;;23.90;11.80;;;-6.80;99.90;;;-7.26;76.84;102397.81;5099373;28;20244;-74
2022/12/19 04:24:52;;;;;;;30.30;12.27;;;-6.90;99.90;;;-7.30;76.92;102397.50;5094791;28;20236;-77
2022/12/19 04:27:22;;;;;;;22.50;12.37;;;-6.90;99.90;;;-7.32;76.52;102388.09;5094161;28;20201;-76
2022/12/19 04:29:54;;;;;;;25.20;11.70;;;-6.90;99.90;;;-7.33;76.79;102387.22;5087782;28;20661;-74
2022/12/19 04:32:24;;;;;;;23.70;10.90;;;-6.90;99.90;;;-7.33;76.67;102381.28;5102952;28;20261;-76
2022/12/19 04:34:53;;;;;;;27.23;11.47;;;-7.00;99.90;;;-7.37;77.08;102367.59;5086409;28;20258;-78
2022/12/19 04:37:22;;;;;;;22.87;10.77;;;-7.00;99.90;;;-7.37;76.98;102367.59;5093992;28;20216;-77
2022/12/19 04:39:50;;;;;;;21.33;11.77;;;-7.00;99.90;;;-7.39;76.53;102374.09;5093518;28;20204;-76
2022/12/19 04:42:19;;;;;;;22.73;11.17;;;-7.00;99.90;;;-7.45;77.22;102358.47;5093262;28;20564;-76
2022/12/19 04:44:47;;;;;;;21.70;11.33;;;-7.00;99.90;;;-7.47;77.17;102362.44;5091014;28;20212;-77
2022/12/19 04:47:16;;;;;;;23.67;11.33;;;-7.10;99.90;;;-7.47;77.22;102359.03;5093245;28;20722;-78
2022/12/19 04:49:44;;;;;;;24.73;11.37;;;-7.10;99.90;;;-7.52;76.45;102356.09;5089568;28;20266;-76
2022/12/19 04:52:14;;;;;;;24.10;10.27;;;-7.20;99.90;;;-7.56;77.03;102354.03;5089789;28;20200;-77
2022/12/19 04:54:42;;;;;;;26.40;11.10;;;-7.20;99.90;;;-7.59;76.92;102339.59;5091859;28;20222;-77
2022/12/19 04:57:11;;;;;;;22.10;10.87;;;-7.20;99.90;;;-7.63;77.13;102329.13;5092936;28;20236;-75
2022/12/19 04:59:39;;;;;;;26.90;11.37;;;-7.20;99.90;;;-7.69;76.66;102343.56;5091943;28;20216;-74
2022/12/19 05:02:08;;;;;;;22.00;11.33;;;-7.30;99.90;;;-7.72;77.34;102340.75;5079196;28;20200;-77
2022/12/19 05:04:36;;;;;;;26.03;12.20;;;-7.30;99.90;;;-7.79;77.42;102335.13;5095027;28;20223;-76
2022/12/19 05:07:05;;;;;;;24.33;11.27;;;-7.40;99.90;;;-7.83;77.18;102340.56;5094974;28;20557;-76
2022/12/19 05:09:35;;;;;;;23.23;11.07;;;-7.50;99.90;;;-7.88;77.32;102330.84;5084737;28;20270;-76
2022/12/19 05:12:03;;;;;;;22.13;11.43;;;-7.50;99.90;;;-7.90;77.54;102339.81;5093397;28;20258;-76
2022/12/19 05:14:33;;;;;;;23.57;11.87;;;-7.50;99.90;;;-7.99;77.15;102341.41;5093259;28;20637;-76
2022/12/19 05:17:02;;;;;;;32.93;14.47;;;-7.60;99.90;;;-8.00;77.34;102340.50;5093810;28;20212;-73
2022/12/19 05:19:31;;;;;;;25.87;12.43;;;-7.60;99.90;;;-8.06;77.20;102353.31;5079439;28;20204;-78
2022/12/19 05:21:59;;;;;;;26.13;12.60;;;-7.60;99.90;;;-8.07;77.13;102348.13;5095786;28;20316;-75
2022/12/19 05:24:28;;;;;;;33.13;13.73;;;-7.70;99.90;;;-8.09;77.27;102339.63;5081115;28;20598;-75
2022/12/19 05:26:58;;;;;;;27.53;12.30;;;-7.70;99.90;;;-8.10;77.78;102337.81;5095146;28;20266;-75
2022/12/19 05:29:26;;;;;;;25.57;11.07;;;-7.70;99.90;;;-8.13;77.44;102345.03;5092394;28;20219;-77
2022/12/19 05:31:55;;;;;;;25.53;12.20;;;-7.70;99.90;;;-8.12;77.69;102341.81;5096035;28;20242;-77
2022/12/19 05:34:24;;;;;;;30.70;13.30;;;-7.70;99.90;;;-8.12;77.35;102341.81;5100539;28;20300;-79
2022/12/19 05:36:53;;;;;;;30.10;14.23;;;-7.70;99.90;;;-8.14;77.62;102338.25;5089395;28;20692;-76
2022/12/19 05:39:21;;;;;;;23.97;11.00;;;-7.70;99.90;;;-8.13;77.06;102340.03;5093880;28;20230;-72
2022/12/19 05:41:50;;;;;;;27.87;14.00;;;-7.70;99.90;;;-8.14;77.21;102335.75;5086799;28;20220;-78
2022/12/19 05:44:20;;;;;;;25.83;12.93;;;-7.70;99.90;;;-8.14;76.93;102346.63;5093999;28;20215;-76
2022/12/19 05:46:49;;;;;;;26.73;13.27;;;-7.70;99.90;;;-8.19;77.31;102327.78;5093137;28;20208;-75
2022/12/19 05:49:18;;;;;;;24.47;11.43;;;-7.80;99.90;;;-8.20;76.77;102325.16;5090250;28;20244;-75
2022/12/19 05:51:47;;;;;;;28.77;14.20;;;-7.80;99.90;;;-8.24;77.48;102333.97;5089512;28;20237;-76
2022/12/19 05:54:15;;;;;;;24.97;11.57;;;-7.80;99.90;;;-8.28;77.26;102315.28;5079695;28;20201;-75
2022/12/19 05:56:43;;;;;;;21.17;10.03;;;-7.90;99.90;;;-8.31;76.77;102307.47;5104228;28;20608;-74
2022/12/19 05:59:12;;;;;;;32.20;13.50;;;-7.90;99.90;;;-8.35;76.48;102314.50;5092862;28;21291;-77
2022/12/19 06:01:42;;;;;;;31.70;13.03;;;-7.90;99.90;;;-8.38;77.08;102319.22;5090097;28;20208;-77
2022/12/19 06:04:11;;;;;;;25.80;13.53;;;-7.90;99.90;;;-8.41;77.06;102316.41;5096695;28;20232;-76
2022/12/19 06:06:40;;;;;;;25.33;11.87;;;-8.00;99.90;;;-8.41;77.94;102323.91;5095654;28;20233;-80
2022/12/19 06:09:08;;;;;;;30.23;14.33;;;-8.00;99.90;;;-8.44;77.28;102321.97;5092896;28;20251;-77
2022/12/19 06:11:37;;;;;;;26.23;12.47;;;-8.00;99.90;;;-8.48;77.51;102327.41;5097950;28;20200;-78
2022/12/19 06:14:06;;;;;;;18.77;9.87;;;-8.00;99.90;;;-8.51;77.72;102329.59;5092315;28;20737;-73
2022/12/19 06:16:35;;;;;;;27.50;11.70;;;-8.00;99.90;;;-8.53;76.96;102344.44;5098492;28;20701;-73
2022/12/19 06:19:05;;;;;;;25.97;12.23;;;-8.00;99.90;;;-8.54;77.42;102341.81;5105172;28;20631;-74
2022/12/19 06:21:36;;;;;;;21.67;10.83;;;-8.10;99.90;;;-8.59;77.70;102340.44;5108604;27;20232;-73
2022/12/19 06:24:15;;;;;;;25.83;12.37;;;-8.10;99.90;;;-8.59;77.30;102342.94;5100916;28;20243;-75
2022/12/19 06:26:43;;;;;;;24.47;11.27;;;-8.20;99.90;;;-8.62;77.60;102350.09;5099357;28;20204;-71
2022/12/19 06:29:12;;;;;;;29.77;12.73;;;-8.20;99.90;;;-8.62;77.10;102342.59;5113480;28;20211;-74
2022/12/19 06:31:40;;;;;;;29.53;14.07;;;-8.20;99.90;;;-8.63;77.71;102344.22;5106303;28;20197;-73
2022/12/19 06:34:11;;;;;;;20.33;10.10;;;-8.20;99.90;;;-8.64;77.90;102334.97;5113262;28;20580;-74
2022/12/19 06:36:59;;;;;;;26.83;12.88;;;-8.20;99.90;;;-8.59;77.90;102342.94;5106126;27;20456;-71
2022/12/19 06:39:35;;;;;;;31.40;17.35;;;-8.20;99.90;;;-8.58;78.04;102344.69;5107838;28;20476;-74
2022/12/19 06:44:50;;;;;;;29.67;14.00;;;-8.20;99.90;;;-8.55;77.44;102335.88;5097136;28;20212;-70
2022/12/19 06:47:20;;;;;;;33.28;14.25;;;-8.20;99.90;;;-8.48;77.35;102344.91;5107086;28;20432;-71
2022/12/19 06:49:50;;;;;;;25.40;13.23;;;-8.10;99.90;;;-8.46;77.19;102345.94;5115224;28;20188;-69
2022/12/19 06:52:19;;;;;;;30.50;13.27;;;-8.10;99.90;;;-8.43;76.54;102340.34;5116356;28;20205;-72
2022/12/19 06:54:47;;;;;;;23.03;11.60;;;-8.10;99.90;;;-8.41;76.92;102337.28;5102391;28;20220;-70
2022/12/19 06:57:16;;;;;;;29.37;13.37;;;-8.00;99.90;;;-8.37;76.70;102331.84;5111440;28;20200;-69
2022/12/19 06:59:44;;;;;;;36.80;17.98;;;-8.40;99.90;;;-8.40;76.48;102325.66;5101596;28;20448;-69
2022/12/19 07:02:28;;;;;;;25.40;13.40;;;-8.00;99.90;;;-8.37;76.59;102318.50;5108139;28;20200;-73
2022/12/19 07:05:03;;;;;;;31.60;13.67;;;-8.00;99.90;;;-8.33;76.25;102318.91;5100077;28;20222;-73
2022/12/19 07:07:32;;;;;;;23.07;12.33;;;-7.90;99.90;;;-8.30;75.97;102323.34;5096348;28;20181;-73
2022/12/19 07:10:00;;;;;;;23.57;12.47;;;-7.90;99.90;;;-8.27;75.84;102334.53;5107836;28;20697;-73
2022/12/19 07:12:29;;;;;;;25.13;11.00;;;-7.90;99.90;;;-8.22;75.55;102332.47;5102122;28;20208;-71
2022/12/19 07:14:57;;;;;;;20.13;10.47;;;-7.90;99.90;;;-8.21;75.53;102333.38;5093049;28;20273;-72
2022/12/19 07:17:29;;;;;;;28.13;12.73;;;-7.80;99.90;;;-8.21;75.17;102333.38;5084391;28;20539;-73
2022/12/19 07:19:59;;;;;;;24.13;12.53;;;-7.80;99.90;;;-8.20;75.95;102328.53;5093002;28;20204;-71
2022/12/19 07:22:33;;;;;;;28.20;13.30;;;-7.80;99.90;;;-8.14;76.03;102335.75;5092664;28;20271;-71
2022/12/19 07:25:04;;;;;;;26.37;12.80;;;-7.80;99.90;;;-8.08;75.80;102326.38;5079756;28;20264;-71
2022/12/19 07:27:33;;;;;;;30.90;13.70;;;-7.70;99.90;;;-8.02;75.43;102329.50;5095698;28;20235;-77
2022/12/19 07:30:06;;;;;;;26.27;13.37;;;-7.60;99.90;;;-7.99;75.01;102331.38;5094848;28;20201;-75
2022/12/19 07:32:35;;;;;;;28.63;13.27;;;-7.60;99.90;;;-7.99;74.81;102337.28;5096885;28;20219;-72
2022/12/19 07:35:06;;;;;;;26.90;13.70;;;-7.60;99.90;;;-7.97;74.66;102328.31;5113460;28;20243;-70
2022/12/19 07:37:35;;;;;;;26.50;13.17;;;-7.60;99.90;;;-7.92;74.99;102342.16;5108451;28;20180;-70
2022/12/19 07:40:04;;;;;;;26.67;10.97;;;-7.50;99.90;;;-7.86;74.77;102324.38;5104274;28;20192;-72
2022/12/19 07:42:34;;;;;;;29.30;12.67;;;-7.40;99.90;;;-7.73;74.50;102322.34;5113370;28;20219;-73
2022/12/19 07:45:02;;;;;;;24.90;13.90;;;-7.30;99.90;;;-7.60;74.06;102322.81;5106985;28;20238;-73
2022/12/19 07:47:30;;;;;;;29.93;14.23;;;-7.20;99.90;;;-7.44;73.69;102315.16;5102439;28;20551;-72
2022/12/19 07:50:00;;;;;;;27.47;12.67;;;-7.10;99.90;;;-7.25;73.30;102334.47;5094276;27;20617;-70
2022/12/19 07:52:30;;;;;;;29.60;13.17;;;-6.90;99.90;;;-7.13;72.97;102311.50;5101909;28;20209;-70
2022/12/19 07:54:58;;;;;;;22.17;11.83;;;-6.80;99.90;;;-7.01;72.46;102305.88;5093723;28;20782;-73
2022/12/19 07:57:27;;;;;;;32.70;13.80;;;-6.60;99.90;;;-6.89;71.99;102307.03;5092656;28;20254;-72
2022/12/19 07:59:55;;;;;;;27.10;13.13;;;-6.50;99.90;;;-6.85;71.30;102306.56;5080394;28;20736;-71
2022/12/19 08:02:26;;;;;;;25.77;12.33;;;-6.40;99.90;;;-6.76;70.90;102311.59;5088692;28;20643;-72
2022/12/19 08:04:55;;;;;;;23.37;12.13;;;-6.40;99.90;;;-6.74;71.02;102312.59;5091970;28;20237;-74
2022/12/19 08:07:23;;;;;;;26.17;13.07;;;-6.30;99.90;;;-6.72;70.50;102301.09;5095691;28;20227;-71
2022/12/19 08:09:54;;;;;;;25.10;12.90;;;-6.30;99.90;;;-6.68;70.59;102308.19;5098035;28;20579;-74
2022/12/19 08:12:23;;;;;;;29.63;13.83;;;-6.10;99.90;;;-6.64;70.38;102310.22;5098146;28;20665;-77
2022/12/19 08:14:53;;;;;;;32.07;12.20;;;-6.20;99.90;;;-6.56;70.38;102311.81;5094383;28;20200;-72
2022/12/19 08:17:25;;;;;;;26.37;11.83;;;-6.10;99.90;;;-6.38;69.46;102288.44;5103001;28;20207;-71
2022/12/19 08:19:53;;;;;;;25.60;12.33;;;-6.00;99.90;;;-6.24;68.55;102294.75;5096482;28;20269;-72
2022/12/19 08:22:22;;;;;;;32.93;13.40;;;-5.90;99.90;;;-6.15;68.47;102288.06;5096198;28;20229;-70
2022/12/19 08:24:51;;;;;;;28.67;12.90;;;-5.80;99.90;;;-6.04;67.98;102293.16;5096073;28;20268;-71
2022/12/19 08:27:21;;;;;;;25.10;12.70;;;-5.70;99.90;;;-5.92;67.71;102279.25;5084114;28;20213;-70
2022/12/19 08:29:50;;;;;;;29.60;12.87;;;-5.50;99.90;;;-5.78;66.97;102268.78;5094590;28;20572;-72
2022/12/19 08:32:19;;;;;;;25.37;11.50;;;-5.40;99.90;;;-5.67;66.43;102262.19;5099427;28;20525;-72
2022/12/19 08:34:49;;;;;;;23.33;11.47;;;-5.30;99.90;;;-5.51;66.29;102261.94;5092973;28;20236;-70
2022/12/19 08:37:18;;;;;;;28.53;13.63;;;-5.20;99.90;;;-5.31;66.54;102259.53;5104922;28;20197;-71
2022/12/19 08:39:46;;;;;;;26.73;13.23;;;-5.00;99.90;;;-4.33;67.87;102249.44;5093134;28;20213;-72
2022/12/19 08:42:15;;;;;;;29.33;13.97;;;-3.80;99.90;;;-2.33;62.60;102239.34;5088088;28;20250;-71
2022/12/19 08:44:45;;;;;;;29.70;13.73;;;-1.90;99.90;;;-0.30;56.47;102250.53;5083353;28;20200;-71
2022/12/19 08:47:13;;;;;;;25.33;13.57;;;-0.10;99.90;;;1.51;47.56;102227.50;5096124;28;20211;-71
2022/12/19 08:49:42;;;;;;;26.57;13.53;;;1.60;99.90;;;3.20;44.96;102211.59;5090028;28;20287;-71
2022/12/19 08:52:10;;;;;;;24.97;13.80;;;3.20;99.90;;;4.71;42.08;102206.44;5078726;28;20204;-71
2022/12/19 08:54:39;;;;;;;27.77;14.03;;;4.60;96.00;;;5.89;38.58;102200.59;5097443;28;20706;-70
2022/12/19 08:57:08;;;;;;;26.03;14.27;;;5.90;89.30;;;6.81;36.53;102192.38;5079640;28;20196;-71
2022/12/19 08:59:36;;;;;;;28.23;14.57;;;6.80;82.30;;;7.49;33.51;102181.25;5082257;28;20235;-70
2022/12/19 09:02:07;;;;;;;26.47;14.17;;;7.50;71.80;;;7.92;32.79;102176.75;5082108;28;20252;-72
2022/12/19 09:04:36;;;;;;;26.30;15.17;;;8.10;67.50;;;8.19;31.44;102177.63;5088039;28;20196;-70
2022/12/19 09:07:24;;;;;;;23.73;14.80;;;8.30;61.80;;;8.65;30.92;102167.94;5080538;28;20235;-72
2022/12/19 09:09:53;;;;;;;25.90;13.93;;;8.90;61.40;;;8.93;30.62;102164.50;5080760;28;20281;-70
2022/12/19 09:12:21;;;;;;;23.37;14.80;;;9.10;58.80;;;9.28;28.76;102159.50;5102383;27;20211;-70
2022/12/19 09:14:50;;;;;;;25.43;14.67;;;9.30;55.40;;;9.46;27.84;102156.56;5098091;28;20238;-68
2022/12/19 09:17:20;;;;;;;21.70;14.53;;;9.30;54.70;;;9.36;28.89;102145.16;5087010;28;20330;-71
2022/12/19 09:19:49;;;;;;;24.70;14.97;;;9.40;55.00;;;9.38;28.35;102153.78;5092204;28;20193;-69
2022/12/19 09:22:17;;;;;;;22.63;14.57;;;9.40;54.60;;;9.21;28.46;102149.88;5099784;28;20240;-69
2022/12/19 09:24:46;;;;;;;24.17;15.40;;;9.30;53.70;;;9.08;28.63;102144.38;5113978;28;20198;-70
2022/12/19 09:27:14;;;;;;;23.97;15.30;;;9.10;53.30;;;8.79;27.59;102134.97;5118576;28;20258;-69
2022/12/19 09:29:43;;;;;;;24.20;15.07;;;8.80;52.30;;;8.56;28.63;102135.16;5111401;28;20212;-70
2022/12/19 09:32:12;;;;;;;26.00;15.43;;;8.60;54.00;;;8.70;28.34;102136.44;5113847;28;20238;-69
2022/12/19 09:34:42;;;;;;;24.63;16.50;;;8.60;53.00;;;8.54;28.87;102133.34;5114754;28;20188;-69
2022/12/19 09:37:12;;;;;;;29.43;15.93;;;8.40;52.80;;;8.56;28.35;102124.88;5113006;28;20210;-69
2022/12/19 09:39:45;;;;;;;25.13;15.63;;;8.50;52.90;;;8.75;27.89;102128.00;5121015;28;20197;-69
2022/12/19 09:42:41;;;;;;;26.27;16.00;;;8.70;52.90;;;9.39;27.70;102109.22;5107142;28;20276;-69
2022/12/19 09:45:39;;;;;;;24.67;14.90;;;9.40;53.30;;;9.92;26.67;102099.41;5106211;28;20204;-70
2022/12/19 09:48:14;;;;;;;24.57;15.10;;;9.90;50.80;;;10.60;26.37;102102.72;5116785;28;20219;-69
2022/12/19 09:51:01;;;;;;;23.23;15.17;;;10.70;50.30;;;11.06;25.00;102087.31;5121460;28;20212;-69
2022/12/19 09:53:54;;;;;;;27.30;15.30;;;10.90;48.30;;;11.71;24.62;102081.56;5112765;28;20196;-68
2022/12/19 09:56:28;;;;;;;26.33;15.63;;;11.70;48.00;;;12.03;23.92;102070.06;5114496;28;20215;-69
2022/12/19 09:59:07;;;;;;;24.60;15.50;;;12.10;46.80;;;10.26;23.15;102062.44;5107611;28;20193;-70
2022/12/19 10:01:45;;;;;;;25.90;16.57;;;10.20;44.10;;;7.81;26.27;102072.84;5100519;28;20200;-71
2022/12/19 10:04:17;;;;;;;25.13;14.57;;;7.80;46.80;;;5.67;28.49;102076.94;5100768;28;20201;-70
2022/12/19 10:06:50;;;;;;;22.47;14.67;;;5.60;49.30;;;4.40;31.60;102070.53;5099395;28;20694;-71
2022/12/19 10:09:38;;;;;;;24.87;15.17;;;4.40;54.40;;;6.06;32.25;102053.78;5111487;28;20232;-71
2022/12/19 10:12:46;;;;;;;23.93;14.63;;;6.10;56.50;;;8.52;28.53;102058.81;5113853;28;20189;-70
2022/12/19 10:15:29;;;;;;;24.60;15.03;;;8.00;54.30;;;11.00;25.73;102039.03;5124402;28;20188;-70
2022/12/19 10:18:26;;;;;;;24.97;15.10;;;10.00;50.70;;;12.99;23.56;102025.56;5119796;28;20210;-72
2022/12/19 10:21:06;;;;;;;24.17;14.93;;;12.10;48.70;;;15.19;22.34;102020.84;5105067;28;20214;-69
2022/12/19 10:24:03;;;;;;;26.10;14.70;;;14.60;48.10;;;16.78;19.03;102014.47;5120195;28;20220;-70
2022/12/19 10:26:42;;;;;;;22.10;13.53;;;15.50;41.70;;;17.23;18.42;102000.31;5115073;28;20209;-69
2022/12/19 10:29:56;;;;;;;22.57;13.50;;;16.00;40.20;;;17.32;18.27;101999.34;5111771;28;20208;-69
2022/12/19 10:32:36;;;;;;;20.40;14.00;;;16.40;39.70;;;17.50;17.99;101990.50;5118023;28;20214;-69